Time;durP1;ratioP1;P1;durP2;ratioP2;P2;SDS_P1;SDS_P2;PMS_P1;PMS_P2;Temp;Humidity;BMP_temperature;BMP_pressure;BME280_temperature;BME280_humidity;BME280_pressure;Samples;Min_cycle;Max_cycle;Signal;HPM_P1;HPM_P2
2021/06/19 00:00:30;;;;;;;;;;;;;;;10.20;100.00;99080.31;5102071;27;19963;-83
2021/06/19 00:02:59;;;;;;;;;;;;;;;10.26;100.00;99094.59;5086155;27;20312;-82
2021/06/19 00:05:26;;;;;;;;;;;;;;;10.32;100.00;99090.13;5102386;27;20018;-83
2021/06/19 00:07:53;;;;;;;;;;;;;;;10.39;100.00;99098.41;5105092;27;20312;-83
2021/06/19 00:10:21;;;;;;;;;;;;;;;10.36;100.00;99099.25;5085190;27;19923;-83
2021/06/19 00:12:50;;;;;;;;;;;;;;;10.48;100.00;99102.22;5137251;27;19931;-83
2021/06/19 00:15:19;;;;;;;;;;;;;;;10.57;100.00;99098.94;5119128;27;19923;-83
2021/06/19 00:17:46;;;;;;;;;;;;;;;10.61;100.00;99105.25;5133165;27;20293;-83
2021/06/19 00:20:17;;;;;;;;;;;;;;;10.58;100.00;99100.50;5117215;27;19931;-83
2021/06/19 00:22:45;;;;;;;;;;;;;;;10.60;100.00;99092.50;5096981;28;19969;-83
2021/06/19 00:25:13;;;;;;;;;;;;;;;10.48;100.00;99093.09;5117995;27;20339;-83
2021/06/19 00:27:40;;;;;;;;;;;;;;;10.49;100.00;99097.44;5136491;27;19958;-83
2021/06/19 00:30:08;;;;;;;;;;;;;;;10.47;100.00;99100.66;5118976;27;19928;-83
2021/06/19 00:32:35;;;;;;;;;;;;;;;10.58;100.00;99109.69;5112374;27;19976;-82
2021/06/19 00:35:04;;;;;;;;;;;;;;;10.60;100.00;99114.84;5136557;27;19934;-83
2021/06/19 00:37:35;;;;;;;;;;;;;;;10.66;100.00;99104.78;5130845;27;19924;-83
2021/06/19 00:40:03;;;;;;;;;;;;;;;10.66;100.00;99107.56;5118916;27;19976;-83
2021/06/19 00:42:30;;;;;;;;;;;;;;;10.59;100.00;99105.66;5105435;27;19927;-83
2021/06/19 00:44:58;;;;;;;;;;;;;;;10.60;100.00;99110.03;5114956;28;20313;-83
2021/06/19 00:47:25;;;;;;;;;;;;;;;10.66;100.00;99113.16;5134730;27;19930;-83
2021/06/19 00:49:52;;;;;;;;;;;;;;;10.70;100.00;99113.88;5119053;27;20018;-83
2021/06/19 00:52:20;;;;;;;;;;;;;;;10.69;100.00;99123.50;5118193;27;19930;-83
2021/06/19 00:54:47;;;;;;;;;;;;;;;10.73;100.00;99125.00;5118056;27;20390;-83
2021/06/19 00:57:14;;;;;;;;;;;;;;;10.71;100.00;99132.22;5101362;27;20382;-83
2021/06/19 00:59:43;;;;;;;;;;;;;;;10.78;100.00;99132.91;5096398;27;19931;-83
2021/06/19 01:02:10;;;;;;;;;;;;;;;10.80;100.00;99130.47;5136223;27;20288;-83
2021/06/19 01:04:37;;;;;;;;;;;;;;;10.71;100.00;99133.03;5136455;27;20293;-83
2021/06/19 01:07:04;;;;;;;;;;;;;;;10.59;100.00;99127.22;5135031;27;20400;-83
2021/06/19 01:09:31;;;;;;;;;;;;;;;10.51;100.00;99111.78;5117877;27;19971;-83
2021/06/19 01:11:58;;;;;;;;;;;;;;;10.49;100.00;99114.22;5136000;27;19973;-83
2021/06/19 01:14:25;;;;;;;;;;;;;;;10.47;100.00;99116.63;5135798;27;20390;-83
2021/06/19 01:16:53;;;;;;;;;;;;;;;10.56;100.00;99117.69;5136292;27;19927;-83
2021/06/19 01:19:20;;;;;;;;;;;;;;;10.56;100.00;99116.88;5114098;27;19931;-83
2021/06/19 01:21:51;;;;;;;;;;;;;;;10.58;100.00;99108.88;5113933;28;19924;-83
2021/06/19 01:24:18;;;;;;;;;;;;;;;10.56;100.00;99103.72;5115282;28;20009;-83
2021/06/19 01:26:45;;;;;;;;;;;;;;;10.59;100.00;99102.06;5113976;28;20298;-83
2021/06/19 01:29:12;;;;;;;;;;;;;;;10.60;100.00;99100.88;5097240;28;20413;-83
2021/06/19 01:31:39;;;;;;;;;;;;;;;10.67;100.00;99109.94;5115217;28;19924;-83
2021/06/19 01:34:07;;;;;;;;;;;;;;;10.70;100.00;99113.88;5115144;28;19924;-83
2021/06/19 01:36:34;;;;;;;;;;;;;;;10.75;100.00;99111.38;5114353;28;19924;-83
2021/06/19 01:39:03;;;;;;;;;;;;;;;10.77;100.00;99110.97;5115084;28;20574;-83
2021/06/19 01:41:31;;;;;;;;;;;;;;;10.74;100.00;99128.56;5114083;28;20302;-83
2021/06/19 01:43:58;;;;;;;;;;;;;;;10.73;100.00;99127.00;5113921;28;20016;-83
2021/06/19 01:46:25;;;;;;;;;;;;;;;10.77;100.00;99124.94;5115004;28;19924;-83
2021/06/19 01:48:52;;;;;;;;;;;;;;;10.95;100.00;99120.66;5113883;28;19923;-83
2021/06/19 01:51:19;;;;;;;;;;;;;;;11.03;100.00;99123.34;5114628;28;19931;-83
2021/06/19 01:53:47;;;;;;;;;;;;;;;11.11;100.00;99116.41;5113470;28;19966;-83
2021/06/19 01:56:15;;;;;;;;;;;;;;;11.06;100.00;99130.88;5096560;28;19927;-83
2021/06/19 01:58:42;;;;;;;;;;;;;;;10.97;100.00;99128.63;5114536;28;20397;-83
2021/06/19 02:01:11;;;;;;;;;;;;;;;10.95;100.00;99126.25;5113716;28;20428;-83
2021/06/19 02:03:39;;;;;;;;;;;;;;;10.87;100.00;99121.19;5114315;28;19932;-83
2021/06/19 02:06:06;;;;;;;;;;;;;;;10.88;100.00;99117.97;5113589;28;19924;-83
2021/06/19 02:08:34;;;;;;;;;;;;;;;10.97;100.00;99120.22;5112789;28;19931;-83
2021/06/19 02:11:02;;;;;;;;;;;;;;;11.00;100.00;99110.97;5113048;28;19924;-83
2021/06/19 02:13:30;;;;;;;;;;;;;;;10.92;100.00;99115.09;5096322;28;19931;-83
2021/06/19 02:15:57;;;;;;;;;;;;;;;10.85;100.00;99120.81;5096819;28;20372;-83
2021/06/19 02:18:25;;;;;;;;;;;;;;;10.60;100.00;99109.25;5113945;28;19992;-83
2021/06/19 02:20:53;;;;;;;;;;;;;;;10.49;100.00;99108.63;5113285;28;19924;-83
2021/06/19 02:23:23;;;;;;;;;;;;;;;10.43;100.00;99104.72;5112849;28;19923;-83
2021/06/19 02:25:53;;;;;;;;;;;;;;;10.41;100.00;99105.16;5093123;28;20379;-83
2021/06/19 02:28:24;;;;;;;;;;;;;;;10.27;100.00;99098.97;5109367;28;20011;-83
2021/06/19 02:30:55;;;;;;;;;;;;;;;10.21;100.00;99097.84;5113626;28;19924;-83
2021/06/19 02:33:23;;;;;;;;;;;;;;;10.09;100.00;99090.03;5114309;28;20054;-83
2021/06/19 02:35:51;;;;;;;;;;;;;;;9.93;100.00;99092.63;5096491;28;19930;-83
2021/06/19 02:38:19;;;;;;;;;;;;;;;9.75;100.00;99095.66;5095810;28;20389;-83
2021/06/19 02:40:46;;;;;;;;;;;;;;;9.69;100.00;99088.16;5114175;28;19930;-83
2021/06/19 02:43:14;;;;;;;;;;;;;;;9.62;100.00;99091.81;5079917;28;20261;-80
2021/06/19 02:45:41;;;;;;;;;;;;;;;9.58;100.00;99087.47;5095805;28;19924;-83
2021/06/19 02:48:09;;;;;;;;;;;;;;;9.48;100.00;99088.41;5114262;28;19938;-83
2021/06/19 02:50:38;;;;;;;;;;;;;;;9.54;100.00;99095.09;5095716;28;19968;-84
2021/06/19 02:53:05;;;;;;;;;;;;;;;9.41;100.00;99107.97;5112795;28;19932;-83
2021/06/19 02:55:34;;;;;;;;;;;;;;;9.59;100.00;99105.81;5111102;28;19927;-83
2021/06/19 02:58:03;;;;;;;;;;;;;;;9.63;100.00;99112.13;5114410;28;20333;-83
2021/06/19 03:00:30;;;;;;;;;;;;;;;9.59;100.00;99105.81;5112659;28;20015;-83
2021/06/19 03:02:58;;;;;;;;;;;;;;;9.53;100.00;99113.03;5112779;28;20441;-83
2021/06/19 03:05:25;;;;;;;;;;;;;;;9.55;100.00;99105.03;5095803;28;19924;-83
2021/06/19 03:07:53;;;;;;;;;;;;;;;9.61;100.00;99120.13;5095509;28;19923;-83
2021/06/19 03:10:22;;;;;;;;;;;;;;;9.64;100.00;99119.28;5112776;28;20323;-83
2021/06/19 03:12:49;;;;;;;;;;;;;;;9.68;100.00;99125.63;5112591;28;19923;-83
2021/06/19 03:15:17;;;;;;;;;;;;;;;9.70;100.00;99123.19;5095557;28;20291;-83
2021/06/19 03:17:45;;;;;;;;;;;;;;;9.59;100.00;99128.13;5111650;28;20298;-83
2021/06/19 03:20:13;;;;;;;;;;;;;;;9.68;100.00;99134.00;5095749;28;19931;-83
2021/06/19 03:22:48;;;;;;;;;;;;;;;9.87;100.00;99139.75;5115972;28;19923;-83
2021/06/19 03:25:16;;;;;;;;;;;;;;;10.04;100.00;99143.53;5116521;28;19924;-83
2021/06/19 03:27:44;;;;;;;;;;;;;;;9.78;100.00;99150.63;5099560;28;19927;-82
2021/06/19 03:30:11;;;;;;;;;;;;;;;9.66;100.00;99155.94;5099402;28;19924;-83
2021/06/19 03:32:39;;;;;;;;;;;;;;;9.62;100.00;99160.78;5116763;28;20404;-83
2021/06/19 03:35:07;;;;;;;;;;;;;;;9.46;100.00;99155.75;5115375;27;19974;-83
2021/06/19 03:37:35;;;;;;;;;;;;;;;9.50;100.00;99169.63;5115942;28;19930;-83
2021/06/19 03:40:06;;;;;;;;;;;;;;;9.49;100.00;99162.50;5099715;28;19924;-83
2021/06/19 03:42:33;;;;;;;;;;;;;;;9.41;100.00;99172.13;5099013;28;19928;-83
2021/06/19 03:45:00;;;;;;;;;;;;;;;9.26;100.00;99187.41;5116223;28;20066;-82
2021/06/19 03:47:28;;;;;;;;;;;;;;;9.49;100.00;99190.38;5115871;28;19924;-83
2021/06/19 03:49:55;;;;;;;;;;;;;;;9.49;100.00;99196.75;5099466;28;19931;-82
2021/06/19 03:52:22;;;;;;;;;;;;;;;9.56;100.00;99202.25;5116757;28;20387;-82
2021/06/19 03:54:49;;;;;;;;;;;;;;;9.59;100.00;99201.44;5115955;28;19981;-82
2021/06/19 03:57:24;;;;;;;;;;;;;;;9.62;100.00;99222.16;5117365;28;19927;-83
2021/06/19 03:59:51;;;;;;;;;;;;;;;9.64;100.00;99219.72;5117199;28;20432;-83
2021/06/19 04:02:19;;;;;;;;;;;;;;;9.75;100.00;99223.19;5116838;28;19930;-83
2021/06/19 04:04:46;;;;;;;;;;;;;;;9.79;100.00;99237.91;5115570;28;20480;-83
2021/06/19 04:07:14;;;;;;;;;;;;;;;9.92;100.00;99241.78;5115721;28;19927;-83
2021/06/19 04:09:41;;;;;;;;;;;;;;;9.91;100.00;99235.38;5098652;28;19923;-83
2021/06/19 04:12:08;;;;;;;;;;;;;;;9.84;100.00;99241.06;5117105;28;20019;-83
2021/06/19 04:14:35;;;;;;;;;;;;;;;9.86;100.00;99249.00;5116695;28;20057;-83
2021/06/19 04:17:03;;;;;;;;;;;;;;;9.89;100.00;99248.94;5115961;28;19924;-83
2021/06/19 04:19:32;;;;;;;;;;;;;;;10.05;100.00;99252.00;5116126;28;19938;-83
2021/06/19 04:21:59;;;;;;;;;;;;;;;9.88;100.00;99258.53;5098549;28;19924;-83
2021/06/19 04:24:26;;;;;;;;;;;;;;;9.87;100.00;99261.75;5115332;28;20010;-83
2021/06/19 04:26:53;;;;;;;;;;;;;;;9.96;100.00;99264.84;5115838;28;20382;-83
2021/06/19 04:29:21;;;;;;;;;;;;;;;10.21;100.00;99266.19;5116947;28;19963;-83
2021/06/19 04:31:48;;;;;;;;;;;;;;;10.39;100.00;99271.59;5098482;28;19924;-83
2021/06/19 04:34:15;;;;;;;;;;;;;;;10.46;100.00;99263.09;5114863;28;19924;-82
2021/06/19 04:36:42;;;;;;;;;;;;;;;10.40;100.00;99267.56;5114976;28;19928;-82
2021/06/19 04:39:09;;;;;;;;;;;;;;;10.53;100.00;99268.59;5116258;28;20286;-83
2021/06/19 04:41:49;;;;;;;;;;;;;;;10.47;100.00;99261.88;5097944;28;20394;-83
2021/06/19 04:44:26;;;;;;;;;;;;;;;10.45;100.00;99247.56;5114803;28;19931;-83
2021/06/19 04:46:53;;;;;;;;;;;;;;;10.43;100.00;99245.19;5116198;28;20515;-83
2021/06/19 04:49:20;;;;;;;;;;;;;;;10.28;100.00;99241.00;5114749;28;20006;-83
2021/06/19 04:51:48;;;;;;;;;;;;;;;10.13;100.00;99236.75;5114834;28;19924;-83
2021/06/19 04:54:15;;;;;;;;;;;;;;;9.92;100.00;99236.97;5114826;28;19924;-83
2021/06/19 04:56:42;;;;;;;;;;;;;;;9.83;100.00;99238.69;5114565;28;19931;-82
2021/06/19 04:59:09;;;;;;;;;;;;;;;9.80;100.00;99242.28;5097624;28;19923;-83
2021/06/19 05:01:36;;;;;;;;;;;;;;;9.89;100.00;99232.22;5097580;28;19924;-83
2021/06/19 05:04:04;;;;;;;;;;;;;;;10.03;100.00;99231.25;5097305;28;19928;-83
2021/06/19 05:06:31;;;;;;;;;;;;;;;10.16;100.00;99223.97;5114558;28;20667;-83
2021/06/19 05:08:58;;;;;;;;;;;;;;;10.19;100.00;99223.16;5094281;28;19951;-83
2021/06/19 05:11:25;;;;;;;;;;;;;;;10.34;100.00;99213.38;5097375;28;19923;-83
2021/06/19 05:13:52;;;;;;;;;;;;;;;10.40;100.00;99211.72;5114353;28;20378;-83
2021/06/19 05:16:19;;;;;;;;;;;;;;;10.49;100.00;99203.59;5093848;28;19932;-83
2021/06/19 05:18:46;;;;;;;;;;;;;;;10.53;100.00;99198.75;5107923;28;20287;-83
2021/06/19 05:21:13;;;;;;;;;;;;;;;10.61;100.00;99205.84;5097917;28;19928;-83
2021/06/19 05:23:41;;;;;;;;;;;;;;;10.65;100.00;99206.56;5133863;27;19924;-83
2021/06/19 05:26:08;;;;;;;;;;;;;;;10.87;100.00;99202.25;5131903;27;19923;-83
2021/06/19 05:28:35;;;;;;;;;;;;;;;11.03;100.00;99204.44;5100744;27;19930;-83
2021/06/19 05:31:04;;;;;;;;;;;;;;;11.07;100.00;99217.13;5117531;27;19928;-83
2021/06/19 05:33:32;;;;;;;;;;;;;;;11.03;100.00;99205.19;5100090;27;19930;-83
2021/06/19 05:35:59;;;;;;;;;;;;;;;11.02;100.00;99200.84;5118054;27;19948;-83
2021/06/19 05:38:26;;;;;;;;;;;;;;;11.03;100.00;99193.25;5121901;27;19930;-83
2021/06/19 05:40:53;;;;;;;;;;;;;;;11.30;100.00;99191.97;5135653;27;19931;-83
2021/06/19 05:43:20;;;;;;;;;;;;;;;11.71;100.00;99198.06;5086216;28;19971;-82
2021/06/19 05:45:47;;;;;;;;;;;;;;;12.57;100.00;99207.94;5117495;27;19931;-82
2021/06/19 05:48:15;;;;;;;;;;;;;;;13.75;100.00;99215.94;5117244;27;19927;-84
2021/06/19 05:50:42;;;;;;;;;;;;;;;14.81;100.00;99208.91;5134602;27;19938;-84
2021/06/19 05:53:09;;;;;;;;;;;;;;;15.93;100.00;99195.97;5135526;27;19931;-85
2021/06/19 05:55:36;;;;;;;;;;;;;;;16.52;100.00;99184.53;5116714;27;20011;-87
2021/06/19 05:58:03;;;;;;;;;;;;;;;16.01;100.00;99147.34;5100270;27;19924;-86
2021/06/19 06:00:30;;;;;;;;;;;;;;;15.35;100.00;99133.56;5099537;27;19923;-87
2021/06/19 06:02:57;;;;;;;;;;;;;;;14.56;100.00;99112.47;5116735;27;19991;-87
2021/06/19 06:05:24;;;;;;;;;;;;;;;14.51;100.00;99102.56;5101851;27;19931;-86
2021/06/19 06:07:52;;;;;;;;;;;;;;;14.07;100.00;99089.47;5116940;27;19923;-87
2021/06/19 06:10:19;;;;;;;;;;;;;;;13.86;100.00;99090.84;5116849;27;19924;-87
2021/06/19 06:12:48;;;;;;;;;;;;;;;14.07;100.00;99078.22;5107872;27;19923;-87
2021/06/19 06:15:15;;;;;;;;;;;;;;;14.19;100.00;99080.25;5099708;27;19927;-86
2021/06/19 06:17:42;;;;;;;;;;;;;;;14.15;100.00;99073.94;5080011;28;19962;-87
2021/06/19 06:20:10;;;;;;;;;;;;;;;14.19;100.00;99080.25;5067804;28;19972;-87
2021/06/19 06:22:37;;;;;;;;;;;;;;;14.28;100.00;99077.59;5097073;27;19923;-87
2021/06/19 06:25:04;;;;;;;;;;;;;;;14.43;100.00;99078.75;5111707;28;19924;-87
2021/06/19 06:27:31;;;;;;;;;;;;;;;14.08;100.00;99091.03;5086653;27;19924;-87
2021/06/19 06:29:59;;;;;;;;;;;;;;;13.52;100.00;99093.44;5116364;28;19963;-87
2021/06/19 06:32:26;;;;;;;;;;;;;;;13.59;100.00;99093.22;5090427;28;19996;-87
2021/06/19 06:34:54;;;;;;;;;;;;;;;13.90;100.00;99085.13;5114985;28;20405;-78
2021/06/19 06:37:21;;;;;;;;;;;;;;;14.20;100.00;99087.44;5119586;28;19973;-84
2021/06/19 06:39:48;;;;;;;;;;;;;;;14.47;100.00;99090.66;5115255;28;20019;-86
2021/06/19 06:42:15;;;;;;;;;;;;;;;14.71;100.00;99093.94;5110373;28;20431;-83
2021/06/19 06:44:42;;;;;;;;;;;;;;;14.98;100.00;99092.19;5113215;28;19965;-84
2021/06/19 06:47:10;;;;;;;;;;;;;;;15.18;100.00;99089.13;5118483;28;20010;-85
2021/06/19 06:49:37;;;;;;;;;;;;;;;14.92;100.00;99079.94;5108024;28;19927;-86
2021/06/19 06:52:04;;;;;;;;;;;;;;;15.84;100.00;99074.75;5099391;28;20067;-86
2021/06/19 06:54:38;;;;;;;;;;;;;;;17.53;100.00;99085.66;5089614;27;19931;-86
2021/06/19 06:57:09;;;;;;;;;;;;;;;18.94;100.00;99082.72;5106318;27;20018;-87
2021/06/19 06:59:36;;;;;;;;;;;;;;;18.52;100.00;99057.28;5110308;27;20013;-86
2021/06/19 07:02:04;;;;;;;;;;;;;;;16.56;100.00;99049.81;5120724;27;20336;-83
2021/06/19 07:04:31;;;;;;;;;;;;;;;17.03;100.00;99057.94;5120340;27;20544;-85
2021/06/19 07:06:58;;;;;;;;;;;;;;;14.62;100.00;99052.41;5101136;27;19930;-84
2021/06/19 07:09:25;;;;;;;;;;;;;;;14.31;100.00;99065.47;5119552;27;19927;-84
2021/06/19 07:11:52;;;;;;;;;;;;;;;13.87;100.00;99081.19;5138380;27;19946;-84
2021/06/19 07:14:19;;;;;;;;;;;;;;;13.12;100.00;99085.69;5124445;27;19928;-80
2021/06/19 07:16:46;;;;;;;;;;;;;;;12.61;100.00;99101.34;5120748;27;19923;-84
2021/06/19 07:19:13;;;;;;;;;;;;;;;12.85;100.00;99110.38;5102670;27;19927;-85
2021/06/19 07:21:41;;;;;;;;;;;;;;;13.12;100.00;99116.53;5126473;27;19973;-80
2021/06/19 07:24:09;;;;;;;;;;;;;;;13.15;100.00;99112.84;5131652;27;20259;-83
2021/06/19 07:26:36;;;;;;;;;;;;;;;13.23;100.00;99114.25;5115491;27;19927;-82
2021/06/19 07:29:03;;;;;;;;;;;;;;;13.13;100.00;99112.53;5133287;27;19923;-83
2021/06/19 07:31:31;;;;;;;;;;;;;;;13.49;100.00;99113.97;5115569;27;19931;-85
2021/06/19 07:33:58;;;;;;;;;;;;;;;13.29;100.00;99107.69;5110006;27;20260;-86
2021/06/19 07:36:25;;;;;;;;;;;;;;;13.94;100.00;99108.28;5109823;27;20149;-83
2021/06/19 07:38:52;;;;;;;;;;;;;;;14.23;100.00;99109.03;5108419;27;20378;-84
2021/06/19 07:41:19;;;;;;;;;;;;;;;14.33;100.00;99117.19;5116892;27;20324;-84
2021/06/19 07:43:47;;;;;;;;;;;;;;;14.77;100.00;99118.22;5134710;27;19924;-85
2021/06/19 07:46:14;;;;;;;;;;;;;;;14.72;100.00;99109.56;5117142;27;20018;-87
2021/06/19 07:48:41;;;;;;;;;;;;;;;14.22;100.00;99093.41;5116955;27;19949;-79
2021/06/19 07:51:08;;;;;;;;;;;;;;;13.93;100.00;99087.06;5134247;27;19923;-81
2021/06/19 07:53:36;;;;;;;;;;;;;;;13.90;100.00;99087.94;5132959;27;19935;-84
2021/06/19 07:56:03;;;;;;;;;;;;;;;13.55;100.00;99086.13;5075946;28;19924;-86
2021/06/19 07:58:31;;;;;;;;;;;;;;;14.17;100.00;99091.16;5112555;27;19967;-79
2021/06/19 08:00:58;;;;;;;;;;;;;;;14.69;100.00;99097.19;5127772;27;20261;-81
2021/06/19 08:03:25;;;;;;;;;;;;;;;15.10;100.00;99091.41;5106643;27;19931;-87
2021/06/19 08:05:52;;;;;;;;;;;;;;;14.86;100.00;99087.38;5134581;27;19923;-86
2021/06/19 08:08:19;;;;;;;;;;;;;;;15.04;100.00;99084.75;5097822;27;20018;-87
2021/06/19 08:10:49;;;;;;;;;;;;;;;15.05;100.00;99085.56;5115196;27;19977;-86
2021/06/19 08:13:16;;;;;;;;;;;;;;;15.20;100.00;99086.66;5137342;27;20029;-86
2021/06/19 08:15:43;;;;;;;;;;;;;;;14.69;100.00;99079.53;5124167;27;19945;-86
2021/06/19 08:18:10;;;;;;;;;;;;;;;14.82;100.00;99075.47;5099241;27;19934;-85
2021/06/19 08:20:37;;;;;;;;;;;;;;;14.93;100.00;99070.28;5133823;27;19928;-88
2021/06/19 08:23:04;;;;;;;;;;;;;;;15.08;100.00;99079.03;5106542;27;19930;-89
2021/06/19 08:25:32;;;;;;;;;;;;;;;15.22;100.00;99079.31;5111764;27;19923;-82
2021/06/19 08:27:59;;;;;;;;;;;;;;;14.97;100.00;99070.94;5123071;27;20455;-82
2021/06/19 08:30:26;;;;;;;;;;;;;;;14.56;100.00;99075.91;5133170;27;19976;-80
2021/06/19 08:32:53;;;;;;;;;;;;;;;14.69;100.00;99068.28;5098986;27;19928;-80
2021/06/19 08:35:21;;;;;;;;;;;;;;;15.09;100.00;99075.75;5119168;27;19994;-80
2021/06/19 08:37:48;;;;;;;;;;;;;;;14.65;100.00;99065.56;5132320;27;19924;-81
2021/06/19 08:40:15;;;;;;;;;;;;;;;15.51;100.00;99067.91;5133182;27;20338;-80
2021/06/19 08:42:43;;;;;;;;;;;;;;;16.38;100.00;99063.00;5132520;27;20568;-81
2021/06/19 08:45:10;;;;;;;;;;;;;;;16.66;100.00;99061.91;5103748;27;19930;-80
2021/06/19 08:47:37;;;;;;;;;;;;;;;16.39;100.00;99053.31;5132587;27;19924;-80
2021/06/19 08:50:11;;;;;;;;;;;;;;;15.86;100.00;99039.22;5111540;27;19951;-81
2021/06/19 08:52:39;;;;;;;;;;;;;;;15.88;100.00;99050.03;5103107;27;19931;-80
2021/06/19 08:55:11;;;;;;;;;;;;;;;15.78;100.00;99049.16;5119082;27;19989;-81
2021/06/19 08:57:38;;;;;;;;;;;;;;;15.52;100.00;99047.75;5101151;27;19924;-81
2021/06/19 09:00:06;;;;;;;;;;;;;;;15.44;100.00;99049.22;5129912;27;20429;-80
2021/06/19 09:02:33;;;;;;;;;;;;;;;15.40;100.00;99045.75;5119610;27;19923;-81
2021/06/19 09:05:07;;;;;;;;;;;;;;;15.89;100.00;99037.50;5124066;27;19954;-81
2021/06/19 09:07:35;;;;;;;;;;;;;;;15.80;100.00;99021.34;5127363;27;20069;-81
2021/06/19 09:10:17;;;;;;;;;;;;;;;16.52;100.00;99023.00;5132089;27;20425;-80
2021/06/19 09:13:01;;;;;;;;;;;;;;;16.46;100.00;99014.38;5142250;27;20003;-83
2021/06/19 09:15:30;;;;;;;;;;;;;;;16.81;100.00;99000.81;5130120;27;19927;-85
2021/06/19 09:18:06;;;;;;;;;;;;;;;16.75;100.00;98991.41;5101117;27;19924;-80
2021/06/19 09:20:50;;;;;;;;;;;;;;;17.16;100.00;98990.84;5134090;27;19927;-76
2021/06/19 09:23:19;;;;;;;;;;;;;;;16.92;100.00;98985.00;5114581;27;19923;-82
2021/06/19 09:25:46;;;;;;;;;;;;;;;16.33;100.00;98974.16;5098516;27;20968;-82
2021/06/19 09:28:13;;;;;;;;;;;;;;;16.78;100.00;98982.00;5113876;27;19923;-80
2021/06/19 09:30:42;;;;;;;;;;;;;;;17.02;100.00;98974.53;5096335;27;19923;-84
2021/06/19 09:33:11;;;;;;;;;;;;;;;16.27;100.00;98961.91;5111673;27;19923;-82
2021/06/19 09:35:39;;;;;;;;;;;;;;;16.92;100.00;98972.94;5135191;27;20060;-83
2021/06/19 09:38:10;;;;;;;;;;;;;;;17.30;100.00;98974.06;5115692;27;19930;-81
2021/06/19 09:40:46;;;;;;;;;;;;;;;16.67;100.00;98961.91;5118432;27;20367;-80
2021/06/19 09:43:13;;;;;;;;;;;;;;;17.25;100.00;98968.25;5134902;27;19945;-81
2021/06/19 09:46:01;;;;;;;;;;;;;;;17.52;100.00;98976.75;5136939;27;19923;-81
2021/06/19 09:48:34;;;;;;;;;;;;;;;16.50;100.00;98969.06;5138954;27;19924;-81
2021/06/19 09:51:21;;;;;;;;;;;;;;;17.17;100.00;98972.66;5128061;27;19950;-81
2021/06/19 09:53:52;;;;;;;;;;;;;;;16.41;100.00;98971.84;5140670;27;20373;-81
2021/06/19 09:56:20;;;;;;;;;;;;;;;16.51;100.00;98977.06;5113736;27;19924;-80
2021/06/19 09:58:50;;;;;;;;;;;;;;;16.64;100.00;98974.13;5129342;27;19968;-81
2021/06/19 10:01:34;;;;;;;;;;;;;;;16.64;100.00;98968.50;5134815;27;19987;-81
2021/06/19 10:04:01;;;;;;;;;;;;;;;16.92;100.00;98959.59;5117576;27;19928;-81
2021/06/19 10:06:29;;;;;;;;;;;;;;;17.06;100.00;98961.03;5132816;27;20332;-81
2021/06/19 10:08:57;;;;;;;;;;;;;;;17.60;100.00;98956.16;5134806;27;19931;-81
2021/06/19 10:11:26;;;;;;;;;;;;;;;17.92;100.00;98957.50;5134532;27;19957;-81
2021/06/19 10:13:55;;;;;;;;;;;;;;;18.14;100.00;98960.91;5116350;27;19927;-81
2021/06/19 10:16:23;;;;;;;;;;;;;;;18.03;100.00;98966.28;5130103;27;20392;-81
2021/06/19 10:18:52;;;;;;;;;;;;;;;18.05;100.00;98969.41;5116565;27;20084;-81
2021/06/19 10:21:21;;;;;;;;;;;;;;;18.10;100.00;98977.25;5134856;27;20362;-80
2021/06/19 10:23:48;;;;;;;;;;;;;;;17.97;100.00;98973.84;5100524;28;19963;-81
2021/06/19 10:26:21;;;;;;;;;;;;;;;17.55;100.00;98970.16;5112563;28;19924;-80
2021/06/19 10:28:50;;;;;;;;;;;;;;;16.74;100.00;98978.53;5113106;28;19924;-79
2021/06/19 10:31:19;;;;;;;;;;;;;;;16.12;100.00;98967.34;5113480;28;19924;-80
2021/06/19 10:33:47;;;;;;;;;;;;;;;16.63;100.00;98962.06;5113588;28;20367;-80
2021/06/19 10:36:15;;;;;;;;;;;;;;;16.70;100.00;98967.41;5112497;28;19924;-80
2021/06/19 10:38:48;;;;;;;;;;;;;;;16.71;100.00;98968.19;5105545;28;19928;-81
2021/06/19 10:41:18;;;;;;;;;;;;;;;16.22;100.00;98959.72;5108454;28;19970;-80
2021/06/19 10:43:46;;;;;;;;;;;;;;;16.59;100.00;98960.63;5109594;28;20349;-80
2021/06/19 10:46:25;;;;;;;;;;;;;;;16.82;100.00;98968.53;5112600;28;20065;-80
2021/06/19 10:48:54;;;;;;;;;;;;;;;17.31;100.00;98969.22;5112437;28;19928;-80
2021/06/19 10:51:23;;;;;;;;;;;;;;;17.45;100.00;98969.38;5113648;28;20507;-81
2021/06/19 10:54:09;;;;;;;;;;;;;;;17.34;100.00;98971.84;5113674;28;19930;-80
2021/06/19 10:56:43;;;;;;;;;;;;;;;17.12;100.00;98976.09;5114060;28;19935;-80
2021/06/19 10:59:23;;;;;;;;;;;;;;;16.58;100.00;98976.00;5112433;28;20370;-81
2021/06/19 11:01:52;;;;;;;;;;;;;;;17.01;100.00;98982.19;5113623;28;20383;-80
2021/06/19 11:04:38;;;;;;;;;;;;;;;17.56;100.00;98983.00;5112211;28;19924;-80
2021/06/19 11:07:06;;;;;;;;;;;;;;;17.54;100.00;98969.38;5111405;28;20011;-82
2021/06/19 11:09:38;;;;;;;;;;;;;;;17.68;100.00;98970.75;5111901;28;20489;-82
2021/06/19 11:12:07;;;;;;;;;;;;;;;17.58;100.00;98969.22;5112242;28;19924;-82
2021/06/19 11:14:44;;;;;;;;;;;;;;;16.88;100.00;98955.38;5095540;28;19923;-82
2021/06/19 11:17:14;;;;;;;;;;;;;;;16.63;100.00;98958.47;5113346;28;20010;-81
2021/06/19 11:19:49;;;;;;;;;;;;;;;16.46;100.00;98951.53;5111550;28;19928;-81
2021/06/19 11:22:30;;;;;;;;;;;;;;;16.91;100.00;98960.88;5119417;28;20052;-81
2021/06/19 11:25:09;;;;;;;;;;;;;;;17.31;100.00;98966.38;5115355;28;19943;-82
2021/06/19 11:27:49;;;;;;;;;;;;;;;17.34;100.00;98952.09;5116072;28;19924;-82
2021/06/19 11:30:37;;;;;;;;;;;;;;;17.26;100.00;98950.84;5116262;28;19930;-82
2021/06/19 11:33:19;;;;;;;;;;;;;;;17.07;100.00;98952.09;5115659;28;19968;-82
2021/06/19 11:35:47;;;;;;;;;;;;;;;16.81;100.00;98944.41;5081314;28;20060;-82
2021/06/19 11:38:16;;;;;;;;;;;;;;;16.00;100.00;98951.34;5095765;28;19931;-82
2021/06/19 11:40:43;;;;;;;;;;;;;;;16.24;100.00;98958.00;5109227;28;20008;-83
2021/06/19 11:43:11;;;;;;;;;;;;;;;16.30;100.00;98949.72;5117587;27;19931;-83
2021/06/19 11:45:39;;;;;;;;;;;;;;;16.69;100.00;98953.78;5116463;27;20411;-84
2021/06/19 11:48:11;;;;;;;;;;;;;;;16.57;100.00;98946.22;5098389;28;20351;-83
2021/06/19 11:50:40;;;;;;;;;;;;;;;16.58;100.00;98945.78;5125305;27;20410;-83
2021/06/19 11:53:22;;;;;;;;;;;;;;;16.90;100.00;98941.59;5126674;27;19959;-83
2021/06/19 11:55:50;;;;;;;;;;;;;;;16.71;100.00;98929.47;5106135;27;19924;-83
2021/06/19 11:58:17;;;;;;;;;;;;;;;16.69;100.00;98931.22;5118261;27;20008;-82
2021/06/19 12:00:53;;;;;;;;;;;;;;;17.03;100.00;98917.59;5137331;27;19980;-82
2021/06/19 12:03:24;;;;;;;;;;;;;;;17.45;100.00;98918.53;5118313;27;20041;-82
2021/06/19 12:05:51;;;;;;;;;;;;;;;16.98;100.00;98904.09;5137055;27;19924;-83
2021/06/19 12:08:26;;;;;;;;;;;;;;;17.21;100.00;98906.31;5136985;27;19930;-83
2021/06/19 12:10:54;;;;;;;;;;;;;;;17.12;100.00;98909.13;5127210;27;20043;-82
2021/06/19 12:13:28;;;;;;;;;;;;;;;16.98;100.00;98914.63;5119017;27;19930;-82
2021/06/19 12:15:58;;;;;;;;;;;;;;;17.22;100.00;98909.91;5136166;27;20017;-82
2021/06/19 12:18:25;;;;;;;;;;;;;;;17.33;100.00;98907.38;5118807;27;19931;-82
2021/06/19 12:21:00;;;;;;;;;;;;;;;17.37;100.00;98911.59;5137105;27;19930;-81
2021/06/19 12:23:31;;;;;;;;;;;;;;;17.02;100.00;98899.09;5102806;27;19987;-83
2021/06/19 12:26:05;;;;;;;;;;;;;;;16.85;100.00;98911.94;5136808;27;20278;-83
2021/06/19 12:28:35;;;;;;;;;;;;;;;17.09;100.00;98903.63;5118483;27;19923;-83
2021/06/19 12:31:03;;;;;;;;;;;;;;;17.20;100.00;98916.03;5104604;27;19932;-81
2021/06/19 12:33:31;;;;;;;;;;;;;;;16.86;100.00;98904.25;5133264;27;20356;-81
2021/06/19 12:35:59;;;;;;;;;;;;;;;17.21;100.00;98908.31;5135785;27;19961;-81
2021/06/19 12:38:28;;;;;;;;;;;;;;;17.88;100.00;98898.34;5117861;27;20286;-81
2021/06/19 12:40:59;;;;;;;;;;;;;;;18.17;100.00;98892.09;5136120;27;19923;-82
2021/06/19 12:43:26;;;;;;;;;;;;;;;18.20;100.00;98884.69;5117600;27;19971;-81
2021/06/19 12:45:54;;;;;;;;;;;;;;;18.06;100.00;98874.06;5136111;27;19927;-80